Informes METAR cercanos


LEVC - Manises, Valencia, ESPAÑA
Distance from station: NNE 72km
Actualización: 21/09/2017 23:00
Parcialmente nuboso
Parcialmente nuboso
 Viento del NNE
Viento: NNE 7 km/h
Temperatura: 22°C
Rocío: 18°C
Humedad: 78%
Barómetro: 1018 hPa
Clouds: Parcialmente nuboso
Visibility: 10 km
Cloud details: Parcialmente nuboso 610 m
2017/09/21 21:00 LEVC 212100Z 02004KT 9999 SCT020 22/18 Q1018 NOSIG
LEAL - El Altet, Alicante, ESPAÑA
Distance from station: S 70km
Actualización: 21/09/2017 23:00
Despejado
Despejado
 Viento del ENE
Viento: ENE 9 km/h
Temperatura: 23°C
Rocío: 18°C
Humedad: 74%
Barómetro: 1017 hPa
Resumen: Despejado
Visibility: Mas de 10 km
2017/09/21 21:00 LEAL 212100Z 06005KT CAVOK 23/18 Q1017 NOSIG
 
LELC - San Javier, Murcia, ESPAÑA
Distance from station: SSO 188km
Actualización: 21/09/2017 23:00
Algunas nubes
Algunas nubes
 Viento del ENE
Viento: ENE 9 km/h
Temperatura: 23°C
Rocío: 19°C
Humedad: 78%
Barómetro: 1017 hPa
Clouds: Algunas nubes
Visibility: 10 km
Cloud details: Algunas nubes 640 m
2017/09/21 21:00 LELC 212100Z 06005KT 030V090 9999 FEW021 23/19 Q1017 NOSIG
LEAB - Los Llanos, Albacete, ESPAÑA
Distance from station: O 143km
Actualización: 21/09/2017 23:00
Despejado
Despejado
 Viento del SSE
Viento: SSE 13 km/h
Temperatura: 20°C
Rocío: 11°C
Humedad: 56%
Barómetro: 1019 hPa
Resumen: Despejado
Visibility: Mas de 10 km
2017/09/21 21:00 LEAB 212100Z 16007KT CAVOK 20/11 Q1019 NOSIG